sensor_id;sensor_type;location;lat;lon;timestamp;pressure;altitude;pressure_sealevel;temperature;humidity
36726;BME280;44936;52.086;5.150;2024-01-10T00:00:07;103881.88;;;-2.52;100.00
36726;BME280;44936;52.086;5.150;2024-01-10T00:02:33;103897.59;;;-2.49;100.00
36726;BME280;44936;52.086;5.150;2024-01-10T00:04:59;103888.50;;;-2.54;100.00
36726;BME280;44936;52.086;5.150;2024-01-10T00:07:24;103863.19;;;-2.67;100.00
36726;BME280;44936;52.086;5.150;2024-01-10T00:09:49;103890.94;;;-2.47;100.00
36726;BME280;44936;52.086;5.150;2024-01-10T00:12:15;103871.22;;;-2.64;100.00
36726;BME280;44936;52.086;5.150;2024-01-10T00:14:40;103890.31;;;-2.53;100.00
36726;BME280;44936;52.086;5.150;2024-01-10T00:17:06;103913.81;;;-2.42;100.00
36726;BME280;44936;52.086;5.150;2024-01-10T00:19:31;103900.88;;;-2.59;100.00
36726;BME280;44936;52.086;5.150;2024-01-10T00:21:56;103895.31;;;-2.55;100.00
36726;BME280;44936;52.086;5.150;2024-01-10T00:24:22;103903.97;;;-2.46;100.00
36726;BME280;44936;52.086;5.150;2024-01-10T00:26:47;103908.22;;;-2.46;100.00
36726;BME280;44936;52.086;5.150;2024-01-10T00:29:13;103893.91;;;-2.60;100.00
36726;BME280;44936;52.086;5.150;2024-01-10T00:31:39;103900.88;;;-2.59;100.00
36726;BME280;44936;52.086;5.150;2024-01-10T00:34:04;103891.84;;;-2.55;100.00
36726;BME280;44936;52.086;5.150;2024-01-10T00:36:30;103870.72;;;-2.69;100.00
36726;BME280;44936;52.086;5.150;2024-01-10T00:38:55;103822.41;;;-2.89;100.00
36726;BME280;44936;52.086;5.150;2024-01-10T00:41:21;103857.22;;;-2.75;100.00
36726;BME280;44936;52.086;5.150;2024-01-10T00:43:46;103864.53;;;-2.71;100.00
36726;BME280;44936;52.086;5.150;2024-01-10T00:46:11;103806.28;;;-3.03;100.00
36726;BME280;44936;52.086;5.150;2024-01-10T00:48:37;103865.59;;;-2.69;100.00
36726;BME280;44936;52.086;5.150;2024-01-10T00:51:02;103880.00;;;-2.62;100.00
36726;BME280;44936;52.086;5.150;2024-01-10T00:53:33;103877.59;;;-2.61;100.00
36726;BME280;44936;52.086;5.150;2024-01-10T00:55:59;103887.22;;;-2.67;100.00
36726;BME280;44936;52.086;5.150;2024-01-10T00:58:24;103883.16;;;-2.65;100.00
36726;BME280;44936;52.086;5.150;2024-01-10T01:00:49;103809.66;;;-2.96;100.00
36726;BME280;44936;52.086;5.150;2024-01-10T01:03:15;103841.75;;;-2.83;100.00
36726;BME280;44936;52.086;5.150;2024-01-10T01:05:40;103887.09;;;-2.60;100.00
36726;BME280;44936;52.086;5.150;2024-01-10T01:08:06;103839.69;;;-2.79;100.00
36726;BME280;44936;52.086;5.150;2024-01-10T01:10:32;103864.53;;;-2.71;100.00
36726;BME280;44936;52.086;5.150;2024-01-10T01:12:57;103881.31;;;-2.66;100.00
36726;BME280;44936;52.086;5.150;2024-01-10T01:15:22;103870.81;;;-2.76;100.00
36726;BME280;44936;52.086;5.150;2024-01-10T01:17:48;103868.59;;;-2.73;100.00
36726;BME280;44936;52.086;5.150;2024-01-10T01:20:13;103861.75;;;-2.81;100.00
36726;BME280;44936;52.086;5.150;2024-01-10T01:22:39;103820.63;;;-3.05;100.00
36726;BME280;44936;52.086;5.150;2024-01-10T01:25:04;103818.16;;;-3.13;100.00
36726;BME280;44936;52.086;5.150;2024-01-10T01:27:30;103842.97;;;-2.89;100.00
36726;BME280;44936;52.086;5.150;2024-01-10T01:29:55;103860.00;;;-2.73;100.00
36726;BME280;44936;52.086;5.150;2024-01-10T01:32:21;103860.25;;;-2.79;100.00
36726;BME280;44936;52.086;5.150;2024-01-10T01:34:46;103853.38;;;-2.87;100.00
36726;BME280;44936;52.086;5.150;2024-01-10T01:37:12;103865.38;;;-2.79;100.00
36726;BME280;44936;52.086;5.150;2024-01-10T01:39:37;103856.97;;;-2.69;100.00
36726;BME280;44936;52.086;5.150;2024-01-10T01:42:05;103844.47;;;-2.91;100.00
36726;BME280;44936;52.086;5.150;2024-01-10T01:44:30;103843.72;;;-2.90;100.00
36726;BME280;44936;52.086;5.150;2024-01-10T01:46:57;103853.44;;;-2.78;100.00
36726;BME280;44936;52.086;5.150;2024-01-10T01:49:23;103851.47;;;-2.81;100.00
36726;BME280;44936;52.086;5.150;2024-01-10T01:51:50;103843.13;;;-2.87;100.00
36726;BME280;44936;52.086;5.150;2024-01-10T01:54:15;103846.94;;;-2.75;100.00
36726;BME280;44936;52.086;5.150;2024-01-10T01:56:42;103838.06;;;-2.94;100.00
36726;BME280;44936;52.086;5.150;2024-01-10T01:59:09;103831.78;;;-2.89;100.00
36726;BME280;44936;52.086;5.150;2024-01-10T02:01:35;103872.69;;;-2.66;100.00
36726;BME280;44936;52.086;5.150;2024-01-10T02:04:01;103867.03;;;-2.79;100.00
36726;BME280;44936;52.086;5.150;2024-01-10T02:06:26;103858.44;;;-2.80;100.00
36726;BME280;44936;52.086;5.150;2024-01-10T02:08:52;103825.56;;;-2.91;100.00
36726;BME280;44936;52.086;5.150;2024-01-10T02:11:18;103803.41;;;-3.06;100.00
36726;BME280;44936;52.086;5.150;2024-01-10T02:13:44;103870.50;;;-2.79;100.00
36726;BME280;44936;52.086;5.150;2024-01-10T02:16:10;103868.09;;;-2.77;100.00
36726;BME280;44936;52.086;5.150;2024-01-10T02:18:35;103859.09;;;-2.74;100.00
36726;BME280;44936;52.086;5.150;2024-01-10T02:21:01;103861.75;;;-2.81;100.00
36726;BME280;44936;52.086;5.150;2024-01-10T02:23:26;103867.94;;;-2.79;100.00
36726;BME280;44936;52.086;5.150;2024-01-10T02:25:52;103858.31;;;-2.73;100.00
36726;BME280;44936;52.086;5.150;2024-01-10T02:28:17;103866.59;;;-2.75;100.00
36726;BME280;44936;52.086;5.150;2024-01-10T02:30:43;103859.03;;;-2.82;100.00
36726;BME280;44936;52.086;5.150;2024-01-10T02:33:08;103832.69;;;-2.89;100.00
36726;BME280;44936;52.086;5.150;2024-01-10T02:35:33;103854.34;;;-2.78;100.00
36726;BME280;44936;52.086;5.150;2024-01-10T02:37:59;103867.50;;;-2.75;100.00
36726;BME280;44936;52.086;5.150;2024-01-10T02:40:25;103868.34;;;-2.83;100.00
36726;BME280;44936;52.086;5.150;2024-01-10T02:42:50;103856.25;;;-2.84;100.00
36726;BME280;44936;52.086;5.150;2024-01-10T02:45:18;103858.03;;;-2.92;100.00
36726;BME280;44936;52.086;5.150;2024-01-10T02:47:44;103835.09;;;-2.90;100.00
36726;BME280;44936;52.086;5.150;2024-01-10T02:50:10;103918.25;;;-2.57;100.00
36726;BME280;44936;52.086;5.150;2024-01-10T02:52:35;103895.66;;;-2.68;100.00
36726;BME280;44936;52.086;5.150;2024-01-10T02:55:01;103838.78;;;-3.04;100.00
36726;BME280;44936;52.086;5.150;2024-01-10T02:57:26;103857.63;;;-2.88;100.00
36726;BME280;44936;52.086;5.150;2024-01-10T02:59:52;103862.44;;;-2.91;100.00
36726;BME280;44936;52.086;5.150;2024-01-10T03:02:17;103852.63;;;-2.86;100.00
36726;BME280;44936;52.086;5.150;2024-01-10T03:04:43;103836.50;;;-3.01;100.00
36726;BME280;44936;52.086;5.150;2024-01-10T03:07:09;103883.47;;;-2.86;100.00
36726;BME280;44936;52.086;5.150;2024-01-10T03:09:34;103873.34;;;-2.85;100.00
36726;BME280;44936;52.086;5.150;2024-01-10T03:12:00;103869.81;;;-2.94;100.00
36726;BME280;44936;52.086;5.150;2024-01-10T03:14:25;103838.16;;;-3.01;100.00
36726;BME280;44936;52.086;5.150;2024-01-10T03:16:50;103864.41;;;-2.88;100.00
36726;BME280;44936;52.086;5.150;2024-01-10T03:19:16;103878.53;;;-2.76;100.00
36726;BME280;44936;52.086;5.150;2024-01-10T03:21:41;103868.03;;;-2.86;100.00
36726;BME280;44936;52.086;5.150;2024-01-10T03:24:07;103888.06;;;-2.75;100.00
36726;BME280;44936;52.086;5.150;2024-01-10T03:26:33;103872.13;;;-2.88;100.00
36726;BME280;44936;52.086;5.150;2024-01-10T03:28:58;103896.53;;;-2.76;100.00
36726;BME280;44936;52.086;5.150;2024-01-10T03:31:24;103864.44;;;-3.04;100.00
36726;BME280;44936;52.086;5.150;2024-01-10T03:33:49;103864.66;;;-2.94;100.00
36726;BME280;44936;52.086;5.150;2024-01-10T03:36:17;103860.19;;;-2.88;100.00
36726;BME280;44936;52.086;5.150;2024-01-10T03:38:43;103881.38;;;-2.81;100.00
36726;BME280;44936;52.086;5.150;2024-01-10T03:41:19;103891.66;;;-2.81;100.00
36726;BME280;44936;52.086;5.150;2024-01-10T03:43:46;103900.22;;;-2.90;100.00
36726;BME280;44936;52.086;5.150;2024-01-10T03:46:12;103899.19;;;-2.83;100.00
36726;BME280;44936;52.086;5.150;2024-01-10T03:48:38;103910.72;;;-2.79;100.00
36726;BME280;44936;52.086;5.150;2024-01-10T03:51:07;103919.16;;;-2.80;100.00
36726;BME280;44936;52.086;5.150;2024-01-10T03:53:34;103900.63;;;-2.94;100.00
36726;BME280;44936;52.086;5.150;2024-01-10T03:55:59;103901.59;;;-2.85;100.00
36726;BME280;44936;52.086;5.150;2024-01-10T03:58:24;103888.84;;;-2.92;100.00
36726;BME280;44936;52.086;5.150;2024-01-10T04:00:51;103853.19;;;-3.13;100.00
36726;BME280;44936;52.086;5.150;2024-01-10T04:03:17;103901.88;;;-2.90;100.00
36726;BME280;44936;52.086;5.150;2024-01-10T04:05:42;103893.81;;;-2.93;100.00
36726;BME280;44936;52.086;5.150;2024-01-10T04:08:07;103856.59;;;-3.05;100.00
36726;BME280;44936;52.086;5.150;2024-01-10T04:10:33;103856.09;;;-3.10;100.00
36726;BME280;44936;52.086;5.150;2024-01-10T04:12:58;103834.63;;;-3.10;100.00
36726;BME280;44936;52.086;5.150;2024-01-10T04:15:23;103853.72;;;-3.08;100.00
36726;BME280;44936;52.086;5.150;2024-01-10T04:17:49;103855.00;;;-3.12;100.00
36726;BME280;44936;52.086;5.150;2024-01-10T04:20:15;103847.81;;;-3.07;100.00
36726;BME280;44936;52.086;5.150;2024-01-10T04:22:40;103840.97;;;-3.16;100.00
36726;BME280;44936;52.086;5.150;2024-01-10T04:25:06;103838.94;;;-3.18;100.00
36726;BME280;44936;52.086;5.150;2024-01-10T04:27:32;103854.63;;;-3.08;100.00
36726;BME280;44936;52.086;5.150;2024-01-10T04:29:58;103829.56;;;-3.26;100.00
36726;BME280;44936;52.086;5.150;2024-01-10T04:32:23;103830.28;;;-3.27;100.00
36726;BME280;44936;52.086;5.150;2024-01-10T04:34:49;103831.22;;;-3.27;100.00
36726;BME280;44936;52.086;5.150;2024-01-10T04:37:15;103855.16;;;-3.10;100.00
36726;BME280;44936;52.086;5.150;2024-01-10T04:39:40;103832.75;;;-3.20;100.00
36726;BME280;44936;52.086;5.150;2024-01-10T04:42:08;103842.03;;;-3.14;100.00
36726;BME280;44936;52.086;5.150;2024-01-10T04:44:33;103844.28;;;-3.17;100.00
36726;BME280;44936;52.086;5.150;2024-01-10T04:46:59;103797.28;;;-3.40;100.00
36726;BME280;44936;52.086;5.150;2024-01-10T04:49:24;103793.88;;;-3.48;100.00
36726;BME280;44936;52.086;5.150;2024-01-10T04:51:50;103814.41;;;-3.32;100.00
36726;BME280;44936;52.086;5.150;2024-01-10T04:54:15;103776.44;;;-3.43;100.00
36726;BME280;44936;52.086;5.150;2024-01-10T04:56:41;103800.69;;;-3.48;100.00
36726;BME280;44936;52.086;5.150;2024-01-10T04:59:06;103807.53;;;-3.40;100.00
36726;BME280;44936;52.086;5.150;2024-01-10T05:01:31;103787.00;;;-3.40;100.00
36726;BME280;44936;52.086;5.150;2024-01-10T05:03:57;103802.41;;;-3.40;100.00
36726;BME280;44936;52.086;5.150;2024-01-10T05:06:24;103801.41;;;-3.33;100.00
36726;BME280;44936;52.086;5.150;2024-01-10T05:08:49;103816.97;;;-3.32;100.00
36726;BME280;44936;52.086;5.150;2024-01-10T05:11:15;103786.69;;;-3.43;100.00
36726;BME280;44936;52.086;5.150;2024-01-10T05:13:42;103808.69;;;-3.29;100.00
36726;BME280;44936;52.086;5.150;2024-01-10T05:16:07;103798.84;;;-3.33;100.00
36726;BME280;44936;52.086;5.150;2024-01-10T05:18:33;103775.09;;;-3.55;100.00
36726;BME280;44936;52.086;5.150;2024-01-10T05:20:59;103755.09;;;-3.66;100.00
36726;BME280;44936;52.086;5.150;2024-01-10T05:23:25;103792.31;;;-3.38;100.00
36726;BME280;44936;52.086;5.150;2024-01-10T05:25:50;103802.41;;;-3.40;100.00
36726;BME280;44936;52.086;5.150;2024-01-10T05:28:16;103799.09;;;-3.39;100.00
36726;BME280;44936;52.086;5.150;2024-01-10T05:30:41;103791.09;;;-3.42;100.00
36726;BME280;44936;52.086;5.150;2024-01-10T05:33:08;103811.41;;;-3.28;100.00
36726;BME280;44936;52.086;5.150;2024-01-10T05:35:33;103806.38;;;-3.35;100.00
36726;BME280;44936;52.086;5.150;2024-01-10T05:38:01;103806.69;;;-3.32;100.00
36726;BME280;44936;52.086;5.150;2024-01-10T05:40:28;103754.94;;;-3.52;100.00
36726;BME280;44936;52.086;5.150;2024-01-10T05:42:55;103799.22;;;-3.22;100.00
36726;BME280;44936;52.086;5.150;2024-01-10T05:45:20;103788.31;;;-3.28;100.00
36726;BME280;44936;52.086;5.150;2024-01-10T05:47:46;103779.97;;;-3.34;100.00
36726;BME280;44936;52.086;5.150;2024-01-10T05:50:13;103769.50;;;-3.44;100.00
36726;BME280;44936;52.086;5.150;2024-01-10T05:52:41;103743.78;;;-3.68;100.00
36726;BME280;44936;52.086;5.150;2024-01-10T05:55:08;103771.72;;;-3.47;100.00
36726;BME280;44936;52.086;5.150;2024-01-10T05:57:34;103792.22;;;-3.31;100.00
36726;BME280;44936;52.086;5.150;2024-01-10T06:00:00;103783.38;;;-3.42;100.00
36726;BME280;44936;52.086;5.150;2024-01-10T06:02:26;103792.06;;;-3.33;100.00
36726;BME280;44936;52.086;5.150;2024-01-10T06:04:52;103804.59;;;-3.27;100.00
36726;BME280;44936;52.086;5.150;2024-01-10T06:07:18;103797.25;;;-3.24;100.00
36726;BME280;44936;52.086;5.150;2024-01-10T06:09:43;103799.91;;;-3.31;100.00
36726;BME280;44936;52.086;5.150;2024-01-10T06:12:11;103793.66;;;-3.42;100.00
36726;BME280;44936;52.086;5.150;2024-01-10T06:14:37;103765.50;;;-3.49;100.00
36726;BME280;44936;52.086;5.150;2024-01-10T06:17:02;103792.81;;;-3.34;100.00
36726;BME280;44936;52.086;5.150;2024-01-10T06:19:29;103794.28;;;-3.36;100.00
36726;BME280;44936;52.086;5.150;2024-01-10T06:21:56;103799.81;;;-3.24;100.00
36726;BME280;44936;52.086;5.150;2024-01-10T06:24:21;103810.63;;;-3.35;100.00
36726;BME280;44936;52.086;5.150;2024-01-10T06:26:47;103782.78;;;-3.39;100.00
36726;BME280;44936;52.086;5.150;2024-01-10T06:29:12;103797.03;;;-3.34;100.00
36726;BME280;44936;52.086;5.150;2024-01-10T06:31:37;103785.78;;;-3.44;100.00
36726;BME280;44936;52.086;5.150;2024-01-10T06:34:03;103717.78;;;-3.72;100.00
36726;BME280;44936;52.086;5.150;2024-01-10T06:36:28;103799.22;;;-3.22;100.00
36726;BME280;44936;52.086;5.150;2024-01-10T06:38:54;103768.50;;;-3.53;100.00
36726;BME280;44936;52.086;5.150;2024-01-10T06:41:21;103796.34;;;-3.25;100.00
36726;BME280;44936;52.086;5.150;2024-01-10T06:43:50;103780.81;;;-3.42;100.00
36726;BME280;44936;52.086;5.150;2024-01-10T06:46:15;103796.28;;;-3.33;100.00
36726;BME280;44936;52.086;5.150;2024-01-10T06:48:41;103754.88;;;-3.61;100.00
36726;BME280;44936;52.086;5.150;2024-01-10T06:51:10;103784.00;;;-3.36;100.00
36726;BME280;44936;52.086;5.150;2024-01-10T06:53:36;103789.56;;;-3.40;100.00
36726;BME280;44936;52.086;5.150;2024-01-10T06:56:02;103788.91;;;-3.30;100.00
36726;BME280;44936;52.086;5.150;2024-01-10T06:58:27;103785.13;;;-3.50;100.00
36726;BME280;44936;52.086;5.150;2024-01-10T07:00:53;103804.28;;;-3.30;100.00
36726;BME280;44936;52.086;5.150;2024-01-10T07:03:18;103769.13;;;-3.47;100.00
36726;BME280;44936;52.086;5.150;2024-01-10T07:05:44;103811.25;;;-3.29;100.00
36726;BME280;44936;52.086;5.150;2024-01-10T07:08:09;103806.69;;;-3.32;100.00
36726;BME280;44936;52.086;5.150;2024-01-10T07:10:35;103809.13;;;-3.33;100.00
36726;BME280;44936;52.086;5.150;2024-01-10T07:13:00;103760.63;;;-3.55;100.00
36726;BME280;44936;52.086;5.150;2024-01-10T07:15:29;103796.69;;;-3.37;100.00
36726;BME280;44936;52.086;5.150;2024-01-10T07:17:55;103805.97;;;-3.47;100.00
36726;BME280;44936;52.086;5.150;2024-01-10T07:20:20;103789.03;;;-3.53;100.00
36726;BME280;44936;52.086;5.150;2024-01-10T07:22:45;103802.09;;;-3.43;100.00
36726;BME280;44936;52.086;5.150;2024-01-10T07:25:11;103814.81;;;-3.36;100.00
36726;BME280;44936;52.086;5.150;2024-01-10T07:27:40;103778.50;;;-3.63;100.00
36726;BME280;44936;52.086;5.150;2024-01-10T07:30:06;103801.66;;;-3.39;100.00
36726;BME280;44936;52.086;5.150;2024-01-10T07:32:45;103811.53;;;-3.35;100.00
36726;BME280;44936;52.086;5.150;2024-01-10T07:35:12;103821.28;;;-3.39;100.00
36726;BME280;44936;52.086;5.150;2024-01-10T07:37:39;103804.31;;;-3.46;100.00
36726;BME280;44936;52.086;5.150;2024-01-10T07:40:06;103822.19;;;-3.39;100.00
36726;BME280;44936;52.086;5.150;2024-01-10T07:42:35;103853.44;;;-3.19;100.00
36726;BME280;44936;52.086;5.150;2024-01-10T07:45:01;103852.16;;;-3.31;100.00
36726;BME280;44936;52.086;5.150;2024-01-10T07:47:30;103836.44;;;-3.34;100.00
36726;BME280;44936;52.086;5.150;2024-01-10T07:49:57;103794.81;;;-3.63;100.00
36726;BME280;44936;52.086;5.150;2024-01-10T07:52:22;103820.47;;;-3.47;100.00
36726;BME280;44936;52.086;5.150;2024-01-10T07:54:47;103811.63;;;-3.58;100.00
36726;BME280;44936;52.086;5.150;2024-01-10T07:57:13;103843.38;;;-3.33;100.00
36726;BME280;44936;52.086;5.150;2024-01-10T07:59:38;103841.97;;;-3.38;100.00
36726;BME280;44936;52.086;5.150;2024-01-10T08:02:04;103841.22;;;-3.37;100.00
36726;BME280;44936;52.086;5.150;2024-01-10T08:04:29;103851.25;;;-3.31;100.00
36726;BME280;44936;52.086;5.150;2024-01-10T08:06:55;103868.06;;;-3.26;100.00
36726;BME280;44936;52.086;5.150;2024-01-10T08:09:21;103834.44;;;-3.36;100.00
36726;BME280;44936;52.086;5.150;2024-01-10T08:11:47;103833.53;;;-3.37;100.00
36726;BME280;44936;52.086;5.150;2024-01-10T08:14:13;103823.53;;;-3.43;100.00
36726;BME280;44936;52.086;5.150;2024-01-10T08:16:39;103817.06;;;-3.55;100.00
36726;BME280;44936;52.086;5.150;2024-01-10T08:19:04;103830.94;;;-3.37;100.00
36726;BME280;44936;52.086;5.150;2024-01-10T08:21:29;103815.25;;;-3.56;100.00
36726;BME280;44936;52.086;5.150;2024-01-10T08:23:55;103780.00;;;-3.65;100.00
36726;BME280;44936;52.086;5.150;2024-01-10T08:26:20;103762.13;;;-3.73;100.00
36726;BME280;44936;52.086;5.150;2024-01-10T08:28:46;103811.94;;;-3.39;100.00
36726;BME280;44936;52.086;5.150;2024-01-10T08:31:11;103836.00;;;-3.30;100.00
36726;BME280;44936;52.086;5.150;2024-01-10T08:33:38;103827.56;;;-3.29;100.00
36726;BME280;44936;52.086;5.150;2024-01-10T08:36:04;103845.19;;;-3.16;100.00
36726;BME280;44936;52.086;5.150;2024-01-10T08:38:30;103825.00;;;-3.29;100.00
36726;BME280;44936;52.086;5.150;2024-01-10T08:40:56;103790.66;;;-3.38;100.00
36726;BME280;44936;52.086;5.150;2024-01-10T08:43:21;103803.22;;;-3.32;100.00
36726;BME280;44936;52.086;5.150;2024-01-10T08:45:47;103814.78;;;-3.20;100.00
36726;BME280;44936;52.086;5.150;2024-01-10T08:48:12;103826.19;;;-3.09;100.00
36726;BME280;44936;52.086;5.150;2024-01-10T08:50:38;103806.53;;;-3.18;100.00
36726;BME280;44936;52.086;5.150;2024-01-10T08:53:05;103828.03;;;-3.08;100.00
36726;BME280;44936;52.086;5.150;2024-01-10T08:55:31;103817.16;;;-3.06;100.00
36726;BME280;44936;52.086;5.150;2024-01-10T08:57:57;103780.56;;;-3.12;100.00
36726;BME280;44936;52.086;5.150;2024-01-10T09:00:22;103759.50;;;-3.25;100.00
36726;BME280;44936;52.086;5.150;2024-01-10T09:02:49;103803.63;;;-2.96;100.00
36726;BME280;44936;52.086;5.150;2024-01-10T09:05:15;103781.81;;;-3.08;100.00
36726;BME280;44936;52.086;5.150;2024-01-10T09:07:41;103786.13;;;-2.92;100.00
36726;BME280;44936;52.086;5.150;2024-01-10T09:10:08;103787.31;;;-2.97;100.00
36726;BME280;44936;52.086;5.150;2024-01-10T09:12:34;103785.84;;;-2.86;100.00
36726;BME280;44936;52.086;5.150;2024-01-10T09:14:59;103783.13;;;-2.88;100.00
36726;BME280;44936;52.086;5.150;2024-01-10T09:17:26;103787.72;;;-2.76;100.00
36726;BME280;44936;52.086;5.150;2024-01-10T09:19:51;103764.28;;;-2.79;100.00
36726;BME280;44936;52.086;5.150;2024-01-10T09:22:16;103765.28;;;-2.62;100.00
36726;BME280;44936;52.086;5.150;2024-01-10T09:24:42;103762.97;;;-2.67;100.00
36726;BME280;44936;52.086;5.150;2024-01-10T09:27:07;103729.88;;;-2.73;100.00
36726;BME280;44936;52.086;5.150;2024-01-10T09:29:35;103731.34;;;-2.75;100.00
36726;BME280;44936;52.086;5.150;2024-01-10T09:32:00;103713.06;;;-2.78;100.00
36726;BME280;44936;52.086;5.150;2024-01-10T09:34:26;103711.59;;;-2.67;100.00
36726;BME280;44936;52.086;5.150;2024-01-10T09:36:51;103728.44;;;-2.53;100.00
36726;BME280;44936;52.086;5.150;2024-01-10T09:39:18;103718.31;;;-2.52;100.00
36726;BME280;44936;52.086;5.150;2024-01-10T09:41:48;103714.78;;;-2.61;100.00
36726;BME280;44936;52.086;5.150;2024-01-10T09:44:15;103717.53;;;-2.51;100.00
36726;BME280;44936;52.086;5.150;2024-01-10T09:46:43;103718.78;;;-2.39;100.00
36726;BME280;44936;52.086;5.150;2024-01-10T09:49:11;103727.09;;;-2.41;100.00
36726;BME280;44936;52.086;5.150;2024-01-10T09:51:36;103730.72;;;-2.39;100.00
36726;BME280;44936;52.086;5.150;2024-01-10T09:54:03;103718.66;;;-2.23;100.00
36726;BME280;44936;52.086;5.150;2024-01-10T09:56:30;103695.06;;;-2.36;100.00
36726;BME280;44936;52.086;5.150;2024-01-10T09:59:01;103688.88;;;-2.38;100.00
36726;BME280;44936;52.086;5.150;2024-01-10T10:01:27;103729.88;;;-2.14;100.00
36726;BME280;44936;52.086;5.150;2024-01-10T10:03:53;103710.53;;;-2.10;100.00
36726;BME280;44936;52.086;5.150;2024-01-10T10:06:21;103680.72;;;-2.17;100.00
36726;BME280;44936;52.086;5.150;2024-01-10T10:08:46;103727.47;;;-2.04;100.00
36726;BME280;44936;52.086;5.150;2024-01-10T10:11:12;103727.81;;;-1.83;100.00
36726;BME280;44936;52.086;5.150;2024-01-10T10:13:39;103730.53;;;-1.73;100.00
36726;BME280;44936;52.086;5.150;2024-01-10T10:16:07;103709.03;;;-1.74;100.00
36726;BME280;44936;52.086;5.150;2024-01-10T10:18:35;103694.50;;;-1.64;100.00
36726;BME280;44936;52.086;5.150;2024-01-10T10:21:13;103667.72;;;-1.75;100.00
36726;BME280;44936;52.086;5.150;2024-01-10T10:23:40;103674.50;;;-1.50;100.00
36726;BME280;44936;52.086;5.150;2024-01-10T10:26:26;103707.00;;;-1.33;100.00
36726;BME280;44936;52.086;5.150;2024-01-10T10:28:51;103686.25;;;-1.34;100.00
36726;BME280;44936;52.086;5.150;2024-01-10T10:31:18;103648.44;;;-1.53;100.00
36726;BME280;44936;52.086;5.150;2024-01-10T10:33:44;103622.38;;;-1.38;100.00
36726;BME280;44936;52.086;5.150;2024-01-10T10:36:10;103633.53;;;-1.29;100.00
36726;BME280;44936;52.086;5.150;2024-01-10T10:38:36;103644.84;;;-1.19;100.00
36726;BME280;44936;52.086;5.150;2024-01-10T10:41:07;103641.34;;;-1.10;100.00
36726;BME280;44936;52.086;5.150;2024-01-10T10:43:37;103652.19;;;-0.96;100.00
36726;BME280;44936;52.086;5.150;2024-01-10T10:46:10;103625.56;;;-1.05;100.00
36726;BME280;44936;52.086;5.150;2024-01-10T10:48:39;103635.22;;;-0.94;100.00
36726;BME280;44936;52.086;5.150;2024-01-10T10:51:09;103609.44;;;-0.94;100.00
36726;BME280;44936;52.086;5.150;2024-01-10T10:53:37;103578.09;;;-0.98;100.00
36726;BME280;44936;52.086;5.150;2024-01-10T10:56:04;103617.66;;;-0.70;100.00
36726;BME280;44936;52.086;5.150;2024-01-10T10:58:36;103614.63;;;-0.75;100.00
36726;BME280;44936;52.086;5.150;2024-01-10T11:01:04;103584.88;;;-0.71;100.00
36726;BME280;44936;52.086;5.150;2024-01-10T11:03:37;103573.28;;;-0.76;100.00
36726;BME280;44936;52.086;5.150;2024-01-10T11:06:05;103572.56;;;-0.84;100.00
36726;BME280;44936;52.086;5.150;2024-01-10T11:08:37;103595.50;;;-0.68;100.00
36726;BME280;44936;52.086;5.150;2024-01-10T11:11:06;103595.63;;;-0.67;100.00
36726;BME280;44936;52.086;5.150;2024-01-10T11:13:54;103562.19;;;-0.57;100.00
36726;BME280;44936;52.086;5.150;2024-01-10T11:19:19;103518.03;;;-0.51;100.00
36726;BME280;44936;52.086;5.150;2024-01-10T11:24:59;103547.22;;;-0.42;100.00
36726;BME280;44936;52.086;5.150;2024-01-10T11:27:26;103556.56;;;-0.34;100.00
36726;BME280;44936;52.086;5.150;2024-01-10T11:29:51;103548.88;;;-0.23;100.00
36726;BME280;44936;52.086;5.150;2024-01-10T11:32:17;103597.63;;;-0.08;100.00
36726;BME280;44936;52.086;5.150;2024-01-10T11:34:59;103586.31;;;0.01;100.00
36726;BME280;44936;52.086;5.150;2024-01-10T11:37:29;103588.88;;;0.01;100.00
36726;BME280;44936;52.086;5.150;2024-01-10T11:40:07;103575.56;;;-0.04;100.00
36726;BME280;44936;52.086;5.150;2024-01-10T11:42:46;103551.69;;;-0.02;100.00
36726;BME280;44936;52.086;5.150;2024-01-10T11:47:59;103559.47;;;0.09;100.00
36726;BME280;44936;52.086;5.150;2024-01-10T11:50:24;103521.72;;;0.09;100.00
36726;BME280;44936;52.086;5.150;2024-01-10T11:52:53;103542.09;;;0.16;100.00
36726;BME280;44936;52.086;5.150;2024-01-10T11:55:47;103562.03;;;0.27;100.00
36726;BME280;44936;52.086;5.150;2024-01-10T11:58:13;103527.91;;;0.11;100.00
36726;BME280;44936;52.086;5.150;2024-01-10T12:00:40;103540.97;;;0.23;100.00
36726;BME280;44936;52.086;5.150;2024-01-10T12:03:07;103499.75;;;0.04;100.00
36726;BME280;44936;52.086;5.150;2024-01-10T12:05:34;103543.97;;;0.27;100.00
36726;BME280;44936;52.086;5.150;2024-01-10T12:08:00;103546.72;;;0.39;100.00
36726;BME280;44936;52.086;5.150;2024-01-10T12:10:26;103485.63;;;0.30;100.00
36726;BME280;44936;52.086;5.150;2024-01-10T12:12:52;103502.03;;;0.40;100.00
36726;BME280;44936;52.086;5.150;2024-01-10T12:15:20;103514.47;;;0.44;100.00
36726;BME280;44936;52.086;5.150;2024-01-10T12:17:45;103498.56;;;0.40;100.00
36726;BME280;44936;52.086;5.150;2024-01-10T12:20:11;103503.88;;;0.51;100.00
36726;BME280;44936;52.086;5.150;2024-01-10T12:22:37;103522.91;;;0.62;100.00
36726;BME280;44936;52.086;5.150;2024-01-10T12:25:06;103510.09;;;0.53;100.00
36726;BME280;44936;52.086;5.150;2024-01-10T12:27:31;103508.69;;;0.67;100.00
36726;BME280;44936;52.086;5.150;2024-01-10T12:30:00;103474.84;;;0.74;100.00
36726;BME280;44936;52.086;5.150;2024-01-10T12:32:28;103499.13;;;0.76;100.00
36726;BME280;44936;52.086;5.150;2024-01-10T12:34:57;103480.78;;;0.63;100.00
36726;BME280;44936;52.086;5.150;2024-01-10T12:37:23;103500.56;;;0.63;100.00
36726;BME280;44936;52.086;5.150;2024-01-10T12:39:48;103477.19;;;0.71;100.00
36726;BME280;44936;52.086;5.150;2024-01-10T12:42:15;103462.59;;;0.72;100.00
36726;BME280;44936;52.086;5.150;2024-01-10T12:44:43;103439.34;;;0.82;100.00